createdAt,value
2019-04-05T00:00:12.002Z,100102.89
2019-04-05T00:02:40.845Z,100104.64
2019-04-05T00:05:09.802Z,100109.05
2019-04-05T00:07:38.728Z,100113.57
2019-04-05T00:10:07.679Z,100114.63
2019-04-05T00:12:36.632Z,100111.45
2019-04-05T00:15:15.053Z,100108.15
2019-04-05T00:17:34.832Z,100112.42
2019-04-05T00:20:04.084Z,100119.39
2019-04-05T00:22:33.007Z,100116.46
2019-04-05T00:25:01.953Z,100118.62
2019-04-05T00:27:30.911Z,100120.73
2019-04-05T00:29:59.836Z,100123.31
2019-04-05T00:32:28.764Z,100128.33
2019-04-05T00:34:57.668Z,100130.56
2019-04-05T00:37:26.600Z,100133.14
2019-04-05T00:39:55.505Z,100134.97
2019-04-05T00:42:24.441Z,100131.30
2019-04-05T00:44:53.356Z,100122.80
2019-04-05T00:47:22.266Z,100135.66
2019-04-05T00:49:51.232Z,100135.17
2019-04-05T00:52:20.112Z,100127.88
2019-04-05T00:54:49.028Z,100132.03
2019-04-05T00:57:17.959Z,100134.88
2019-04-05T00:59:46.866Z,100134.39
2019-04-05T01:02:15.801Z,100136.72
2019-04-05T01:04:44.739Z,100132.72
2019-04-05T01:07:13.664Z,100135.53
2019-04-05T01:09:42.601Z,100145.27
2019-04-05T01:12:12.042Z,100138.67
2019-04-05T01:14:41.267Z,100140.27
2019-04-05T01:17:10.201Z,100146.74
2019-04-05T01:19:39.119Z,100144.63
2019-04-05T01:22:08.056Z,100144.66
2019-04-05T01:24:36.988Z,100148.33
2019-04-05T01:27:06.469Z,100145.27
2019-04-05T01:29:35.402Z,100147.10
2019-04-05T01:32:04.352Z,100139.49
2019-04-05T01:34:33.295Z,100133.91
2019-04-05T01:37:02.217Z,100132.23
2019-04-05T01:39:31.149Z,100132.35
2019-04-05T01:42:00.120Z,100134.06
2019-04-05T01:44:29.094Z,100143.38
2019-04-05T01:46:58.011Z,100141.55
2019-04-05T01:49:26.917Z,100147.41
2019-04-05T01:51:55.867Z,100150.47
2019-04-05T01:54:24.795Z,100149.73
2019-04-05T01:56:53.717Z,100152.45
2019-04-05T01:59:22.624Z,100147.59
2019-04-05T02:01:51.542Z,100151.09
2019-04-05T02:04:20.481Z,100154.03
2019-04-05T02:06:49.414Z,100147.06
2019-04-05T02:09:18.332Z,100152.20
2019-04-05T02:11:47.294Z,100148.66
2019-04-05T02:14:16.205Z,100152.69
2019-04-05T02:16:45.115Z,100154.89
2019-04-05T02:19:14.048Z,100153.28
2019-04-05T02:21:42.984Z,100157.95
2019-04-05T02:24:11.902Z,100158.56
2019-04-05T02:26:40.831Z,100150.98
2019-04-05T02:29:09.739Z,100153.66
2019-04-05T02:31:38.721Z,100159.16
2019-04-05T02:34:07.669Z,100158.42
2019-04-05T02:36:36.670Z,100154.52
2019-04-05T02:39:07.157Z,100156.03
2019-04-05T02:41:36.068Z,100166.35
2019-04-05T02:44:05.088Z,100169.19
2019-04-05T02:46:34.017Z,100171.75
2019-04-05T02:49:02.968Z,100169.97
2019-04-05T02:51:31.860Z,100165.00
2019-04-05T02:54:00.765Z,100165.03
2019-04-05T02:56:29.834Z,100164.44
2019-04-05T02:58:58.813Z,100171.12
2019-04-05T03:01:27.694Z,100178.58
2019-04-05T03:03:56.605Z,100179.67
2019-04-05T03:06:25.501Z,100182.73
2019-04-05T03:08:54.414Z,100185.81
2019-04-05T03:11:23.394Z,100179.70
2019-04-05T03:13:52.474Z,100178.21
2019-04-05T03:16:40.265Z,100177.72
2019-04-05T03:19:05.651Z,100167.13
2019-04-05T03:21:34.623Z,100156.50
2019-04-05T03:24:03.522Z,100159.05
2019-04-05T03:26:32.906Z,100161.75
2019-04-05T03:29:01.793Z,100171.51
2019-04-05T03:31:30.680Z,100169.45
2019-04-05T03:33:59.570Z,100171.88
2019-04-05T03:36:28.503Z,100182.60
2019-04-05T03:38:57.404Z,100178.81
2019-04-05T03:41:26.274Z,100179.13
2019-04-05T03:43:55.186Z,100190.67
2019-04-05T03:46:24.063Z,100186.91
2019-04-05T03:48:52.970Z,100186.39
2019-04-05T03:51:21.865Z,100185.53
2019-04-05T03:53:50.805Z,100182.10
2019-04-05T03:56:19.707Z,100177.81
2019-04-05T03:58:48.587Z,100178.90
2019-04-05T04:01:17.501Z,100178.67
2019-04-05T04:03:46.421Z,100180.34
2019-04-05T04:06:15.456Z,100186.92
2019-04-05T04:08:44.293Z,100182.10
2019-04-05T04:11:13.182Z,100180.98
2019-04-05T04:13:42.091Z,100181.34
2019-04-05T04:16:10.983Z,100186.70
2019-04-05T04:18:39.890Z,100185.16
2019-04-05T04:21:19.088Z,100183.55
2019-04-05T04:23:47.967Z,100184.84
2019-04-05T04:26:16.870Z,100189.82
2019-04-05T04:28:45.779Z,100189.70
2019-04-05T04:31:15.013Z,100198.11
2019-04-05T04:33:43.904Z,100201.22
2019-04-05T04:36:13.320Z,100208.66
2019-04-05T04:38:41.690Z,100218.62
2019-04-05T04:41:10.602Z,100216.31
2019-04-05T04:43:39.484Z,100207.23
2019-04-05T04:46:08.450Z,100210.77
2019-04-05T04:48:37.334Z,100212.15
2019-04-05T04:51:06.276Z,100212.17
2019-04-05T04:53:35.166Z,100211.89
2019-04-05T04:56:04.140Z,100217.68
2019-04-05T04:58:33.046Z,100217.30
2019-04-05T05:01:01.948Z,100226.47
2019-04-05T05:03:30.867Z,100222.77
2019-04-05T05:05:59.759Z,100224.73
2019-04-05T05:08:28.660Z,100228.94
2019-04-05T05:10:57.539Z,100232.40
2019-04-05T05:13:26.452Z,100236.13
2019-04-05T05:15:55.320Z,100234.45
2019-04-05T05:18:24.240Z,100231.16
2019-04-05T05:20:53.125Z,100228.80
2019-04-05T05:23:22.042Z,100236.73
2019-04-05T05:25:50.962Z,100235.02
2019-04-05T05:28:19.845Z,100240.10
2019-04-05T05:30:48.743Z,100243.87
2019-04-05T05:33:17.649Z,100243.02
2019-04-05T05:35:46.556Z,100239.00
2019-04-05T05:38:15.453Z,100241.14
2019-04-05T05:40:44.390Z,100244.20
2019-04-05T05:43:13.274Z,100247.36
2019-04-05T05:45:42.148Z,100254.12
2019-04-05T05:48:11.049Z,100252.61
2019-04-05T05:50:39.951Z,100254.23
2019-04-05T05:53:08.857Z,100252.97
2019-04-05T05:55:37.780Z,100255.17
2019-04-05T05:58:06.842Z,100251.63
2019-04-05T06:00:35.817Z,100253.00
2019-04-05T06:03:06.257Z,100259.81
2019-04-05T06:05:33.649Z,100261.84
2019-04-05T06:08:02.537Z,100257.91
2019-04-05T06:10:31.478Z,100253.72
2019-04-05T06:13:00.400Z,100249.78
2019-04-05T06:15:29.287Z,100250.68
2019-04-05T06:18:04.486Z,100249.34
2019-04-05T06:20:27.135Z,100248.26
2019-04-05T06:22:56.053Z,100249.01
2019-04-05T06:25:24.969Z,100250.99
2019-04-05T06:27:53.861Z,100252.78
2019-04-05T06:30:22.774Z,100252.23
2019-04-05T06:32:51.713Z,100255.37
2019-04-05T06:35:20.653Z,100253.22
2019-04-05T06:37:49.553Z,100252.50
2019-04-05T06:40:18.481Z,100246.77
2019-04-05T06:42:47.417Z,100253.50
2019-04-05T06:45:16.338Z,100249.11
2019-04-05T06:47:45.261Z,100245.06
2019-04-05T06:50:14.165Z,100242.95
2019-04-05T06:52:43.084Z,100244.75
2019-04-05T06:55:12.964Z,100247.83
2019-04-05T06:57:41.891Z,100254.84
2019-04-05T07:00:10.873Z,100252.88
2019-04-05T07:02:39.770Z,100256.63
2019-04-05T07:05:08.741Z,100259.42
2019-04-05T07:07:37.675Z,100264.13
2019-04-05T07:10:06.821Z,100263.56
2019-04-05T07:12:35.754Z,100264.98
2019-04-05T07:15:05.254Z,100262.24
2019-04-05T07:17:34.186Z,100263.66
2019-04-05T07:20:03.156Z,100264.47
2019-04-05T07:22:38.856Z,100260.22
2019-04-05T07:25:00.962Z,100263.42
2019-04-05T07:27:29.852Z,100251.68
2019-04-05T07:29:58.764Z,100254.85
2019-04-05T07:32:27.668Z,100255.13
2019-04-05T07:34:56.587Z,100263.64
2019-04-05T07:37:25.486Z,100261.55
2019-04-05T07:39:54.410Z,100264.78
2019-04-05T07:42:23.315Z,100268.94
2019-04-05T07:44:52.240Z,100272.25
2019-04-05T07:47:21.128Z,100270.35
2019-04-05T07:49:50.095Z,100276.46
2019-04-05T07:52:18.979Z,100274.03
2019-04-05T07:54:47.886Z,100275.97
2019-04-05T07:57:16.827Z,100279.47
2019-04-05T07:59:45.768Z,100278.34
2019-04-05T08:02:14.619Z,100276.89
2019-04-05T08:04:43.498Z,100273.87
2019-04-05T08:07:12.751Z,100265.31
2019-04-05T08:09:41.644Z,100269.68
2019-04-05T08:12:10.629Z,100275.53
2019-04-05T08:14:39.889Z,100269.58
2019-04-05T08:17:08.973Z,100261.42
2019-04-05T08:19:37.912Z,100264.00
2019-04-05T08:22:06.875Z,100267.18
2019-04-05T08:24:35.755Z,100264.63
2019-04-05T08:27:04.784Z,100264.03
2019-04-05T08:29:33.690Z,100257.86
2019-04-05T08:32:13.897Z,100258.27
2019-04-05T08:34:31.502Z,100253.84
2019-04-05T08:37:00.395Z,100256.36
2019-04-05T08:39:29.326Z,100259.26
2019-04-05T08:41:58.345Z,100259.91
2019-04-05T08:44:27.234Z,100253.72
2019-04-05T08:46:56.175Z,100253.55
2019-04-05T08:49:25.099Z,100249.52
2019-04-05T08:51:54.016Z,100249.16
2019-04-05T08:54:32.342Z,100255.27
2019-04-05T08:56:51.844Z,100250.70
2019-04-05T08:59:20.773Z,100245.19
2019-04-05T09:01:49.663Z,100248.80
2019-04-05T09:04:18.590Z,100252.55
2019-04-05T09:06:47.496Z,100250.05
2019-04-05T09:09:16.383Z,100245.68
2019-04-05T09:11:45.297Z,100242.64
2019-04-05T09:14:14.212Z,100246.28
2019-04-05T09:16:43.220Z,100235.41
2019-04-05T09:19:23.102Z,100244.63
2019-04-05T09:21:40.962Z,100238.53
2019-04-05T09:24:09.899Z,100239.50
2019-04-05T09:26:38.802Z,100227.91
2019-04-05T09:29:09.471Z,100237.06
2019-04-05T09:31:36.920Z,100244.31
2019-04-05T09:34:05.958Z,100234.70
2019-04-05T09:36:34.815Z,100240.02
2019-04-05T09:39:03.810Z,100243.72
2019-04-05T09:41:32.726Z,100235.22
2019-04-05T09:44:01.636Z,100232.06
2019-04-05T09:46:30.571Z,100233.34
2019-04-05T09:48:59.515Z,100229.47
2019-04-05T09:51:28.435Z,100225.25
2019-04-05T09:53:57.335Z,100230.48
2019-04-05T09:56:26.292Z,100224.51
2019-04-05T09:58:55.187Z,100221.60
2019-04-05T10:01:24.128Z,100221.05
2019-04-05T10:03:53.056Z,100223.17
2019-04-05T10:06:21.942Z,100218.25
2019-04-05T10:08:50.875Z,100213.89
2019-04-05T10:11:19.789Z,100213.91
2019-04-05T10:13:48.684Z,100218.80
2019-04-05T10:16:17.570Z,100210.78
2019-04-05T10:18:46.554Z,100215.92
2019-04-05T10:21:15.417Z,100213.10
2019-04-05T10:23:44.321Z,100215.39
2019-04-05T10:26:13.237Z,100210.77
2019-04-05T10:28:42.131Z,100206.28
2019-04-05T10:31:11.042Z,100206.98
2019-04-05T10:33:39.928Z,100209.86
2019-04-05T10:36:09.011Z,100203.80
2019-04-05T10:38:37.911Z,100207.59
2019-04-05T10:41:06.994Z,100203.45
2019-04-05T10:43:35.899Z,100203.86
2019-04-05T10:46:04.876Z,100215.81
2019-04-05T10:48:35.395Z,100214.56
2019-04-05T10:51:02.711Z,100215.70
2019-04-05T10:53:31.626Z,100212.59
2019-04-05T10:56:00.532Z,100211.73
2019-04-05T10:58:29.441Z,100206.78
2019-04-05T11:00:58.344Z,100212.91
2019-04-05T11:03:27.230Z,100213.25
2019-04-05T11:05:56.151Z,100217.95
2019-04-05T11:08:25.020Z,100217.56
2019-04-05T11:10:53.891Z,100224.69
2019-04-05T11:13:22.796Z,100215.05
2019-04-05T11:15:51.692Z,100209.41
2019-04-05T11:18:20.618Z,100213.36
2019-04-05T11:20:49.840Z,100216.25
2019-04-05T11:23:21.181Z,100209.86
2019-04-05T11:25:47.339Z,100212.78
2019-04-05T11:28:16.233Z,100209.44
2019-04-05T11:30:45.792Z,100215.64
2019-04-05T11:33:14.735Z,100221.34
2019-04-05T11:35:43.751Z,100219.52
2019-04-05T11:38:14.116Z,100220.55
2019-04-05T11:40:43.004Z,100222.56
2019-04-05T11:43:11.946Z,100222.52
2019-04-05T11:45:40.837Z,100220.63
2019-04-05T11:48:09.810Z,100221.17
2019-04-05T11:50:38.688Z,100221.83
2019-04-05T11:53:07.697Z,100223.27
2019-04-05T11:55:36.596Z,100220.17
2019-04-05T11:58:05.503Z,100220.86
2019-04-05T12:00:48.099Z,100220.58
2019-04-05T12:03:17.096Z,100217.20
2019-04-05T12:05:45.967Z,100224.63
2019-04-05T12:08:14.929Z,100227.12
2019-04-05T12:10:43.862Z,100231.44
2019-04-05T12:13:12.762Z,100239.84
2019-04-05T12:15:41.702Z,100242.74
2019-04-05T12:18:10.671Z,100247.22
2019-04-05T12:20:49.182Z,100244.89
2019-04-05T12:23:08.671Z,100245.38
2019-04-05T12:25:37.588Z,100245.00
2019-04-05T12:28:10.310Z,100246.98
2019-04-05T12:30:35.453Z,100237.78
2019-04-05T12:33:14.031Z,100236.95
2019-04-05T12:35:33.341Z,100227.36
2019-04-05T12:38:06.746Z,100225.98
2019-04-05T12:40:33.391Z,100228.38
2019-04-05T12:43:03.438Z,100223.80
2019-04-05T12:45:33.682Z,100226.70
2019-04-05T12:48:03.783Z,100222.45
2019-04-05T12:50:33.699Z,100220.73
2019-04-05T12:53:02.535Z,100220.50
2019-04-05T12:55:31.456Z,100226.22
2019-04-05T12:58:00.359Z,100226.06
2019-04-05T13:00:29.296Z,100221.10
2019-04-05T13:02:58.159Z,100220.98
2019-04-05T13:05:27.044Z,100223.36
2019-04-05T13:07:55.956Z,100221.41
2019-04-05T13:10:26.013Z,100216.68
2019-04-05T13:12:56.772Z,100206.47
2019-04-05T13:15:22.719Z,100211.73
2019-04-05T13:17:51.635Z,100217.02
2019-04-05T13:20:20.538Z,100206.01
2019-04-05T13:22:49.451Z,100201.62
2019-04-05T13:25:18.342Z,100201.67
2019-04-05T13:27:47.260Z,100202.14
2019-04-05T13:30:18.376Z,100205.08
2019-04-05T13:32:45.059Z,100193.31
2019-04-05T13:35:16.704Z,100192.04
2019-04-05T13:37:42.917Z,100196.52
2019-04-05T13:40:11.746Z,100193.16
2019-04-05T13:42:40.881Z,100185.41
2019-04-05T13:45:09.733Z,100186.77
2019-04-05T13:47:39.161Z,100180.88
2019-04-05T13:50:11.020Z,100180.28
2019-04-05T13:52:36.670Z,100170.98
2019-04-05T13:55:05.743Z,100169.63
2019-04-05T13:57:34.695Z,100161.05
2019-04-05T14:00:03.721Z,100157.97
2019-04-05T14:02:32.584Z,100153.17
2019-04-05T14:05:01.507Z,100150.88
2019-04-05T14:07:30.401Z,100147.27
2019-04-05T14:09:59.383Z,100143.67
2019-04-05T14:12:31.099Z,100144.70
2019-04-05T14:14:57.244Z,100142.84
2019-04-05T14:17:26.167Z,100136.42
2019-04-05T14:19:55.095Z,100141.97
2019-04-05T14:22:23.994Z,100140.72
2019-04-05T14:24:56.562Z,100133.96
2019-04-05T14:27:21.845Z,100133.69
2019-04-05T14:29:51.149Z,100133.69
2019-04-05T14:32:21.736Z,100137.42
2019-04-05T14:34:48.623Z,100135.80
2019-04-05T14:37:21.402Z,100136.66
2019-04-05T14:39:46.434Z,100133.23
2019-04-05T14:42:15.691Z,100131.71
2019-04-05T14:44:44.255Z,100131.35
2019-04-05T14:47:13.144Z,100120.53
2019-04-05T14:49:42.063Z,100124.17
2019-04-05T14:52:10.978Z,100124.69
2019-04-05T14:54:39.902Z,100122.31
2019-04-05T14:57:08.985Z,100119.00
2019-04-05T14:59:37.890Z,100116.13
2019-04-05T15:02:07.017Z,100115.19
2019-04-05T15:04:35.850Z,100114.04
2019-04-05T15:07:04.831Z,100115.86
2019-04-05T15:09:33.747Z,100105.52
2019-04-05T15:12:02.695Z,100101.85
2019-04-05T15:14:31.546Z,100095.93
2019-04-05T15:17:00.456Z,100092.14
2019-04-05T15:19:29.399Z,100092.44
2019-04-05T15:22:05.631Z,100100.33
2019-04-05T15:24:27.231Z,100092.36
2019-04-05T15:26:56.152Z,100089.69
2019-04-05T15:29:26.216Z,100089.36
2019-04-05T15:31:55.476Z,100089.42
2019-04-05T15:34:22.928Z,100091.56
2019-04-05T15:36:52.339Z,100096.37
2019-04-05T15:39:21.216Z,100095.73
2019-04-05T15:41:50.197Z,100088.86
2019-04-05T15:44:19.089Z,100085.62
2019-04-05T15:46:47.983Z,100087.75
2019-04-05T15:49:16.914Z,100084.92
2019-04-05T15:51:45.899Z,100090.73
2019-04-05T15:54:14.756Z,100091.27
2019-04-05T15:56:43.673Z,100090.47
2019-04-05T15:59:12.555Z,100084.69
2019-04-05T16:01:41.492Z,100088.08
2019-04-05T16:04:10.460Z,100084.02
2019-04-05T16:06:39.353Z,100084.58
2019-04-05T16:09:08.500Z,100093.33
2019-04-05T16:11:37.400Z,100084.88
2019-04-05T16:14:06.484Z,100085.34
2019-04-05T16:16:35.379Z,100092.09
2019-04-05T16:19:04.397Z,100094.74
2019-04-05T16:21:33.326Z,100096.31
2019-04-05T16:24:02.259Z,100094.51
2019-04-05T16:26:31.184Z,100090.97
2019-04-05T16:29:00.062Z,100095.39
2019-04-05T16:31:28.963Z,100100.34
2019-04-05T16:33:57.916Z,100106.31
2019-04-05T16:36:26.823Z,100100.88
2019-04-05T16:38:55.725Z,100097.63
2019-04-05T16:41:24.660Z,100102.91
2019-04-05T16:43:53.608Z,100103.92
2019-04-05T16:46:22.566Z,100108.01
2019-04-05T16:48:51.435Z,100105.97
2019-04-05T16:51:20.370Z,100103.41
2019-04-05T16:54:02.379Z,100106.30
2019-04-05T16:56:31.345Z,100107.31
2019-04-05T16:59:00.278Z,100113.62
2019-04-05T17:01:29.173Z,100114.98
2019-04-05T17:03:58.144Z,100113.44
2019-04-05T17:06:27.113Z,100116.01
2019-04-05T17:08:56.038Z,100121.09
2019-04-05T17:11:24.924Z,100128.02
2019-04-05T17:13:53.846Z,100122.80
2019-04-05T17:16:22.806Z,100131.79
2019-04-05T17:18:51.849Z,100132.12
2019-04-05T17:21:23.228Z,100132.46
2019-04-05T17:23:52.037Z,100130.23
2019-04-05T17:26:20.961Z,100125.99
2019-04-05T17:28:49.851Z,100127.16
2019-04-05T17:31:18.780Z,100124.42
2019-04-05T17:33:47.827Z,100122.05
2019-04-05T17:36:16.848Z,100119.34
2019-04-05T17:38:45.840Z,100125.97
2019-04-05T17:41:14.762Z,100116.97
2019-04-05T17:43:43.725Z,100121.25
2019-04-05T17:46:12.696Z,100118.86
2019-04-05T17:48:41.636Z,100125.16
2019-04-05T17:51:10.750Z,100127.48
2019-04-05T17:53:39.712Z,100129.17
2019-04-05T17:56:08.740Z,100126.61
2019-04-05T17:58:37.737Z,100122.17
2019-04-05T18:01:06.754Z,100126.08
2019-04-05T18:03:35.670Z,100127.64
2019-04-05T18:06:04.761Z,100126.45
2019-04-05T18:08:33.668Z,100125.09
2019-04-05T18:11:03.199Z,100127.27
2019-04-05T18:13:32.144Z,100129.32
2019-04-05T18:16:01.077Z,100134.95
2019-04-05T18:18:30.000Z,100137.79
2019-04-05T18:20:58.915Z,100135.41
2019-04-05T18:23:27.832Z,100134.87
2019-04-05T18:25:56.819Z,100138.78
2019-04-05T18:28:25.704Z,100150.41
2019-04-05T18:30:54.641Z,100151.58
2019-04-05T18:33:23.583Z,100153.78
2019-04-05T18:35:52.502Z,100152.43
2019-04-05T18:38:21.443Z,100153.66
2019-04-05T18:40:50.355Z,100154.57
2019-04-05T18:43:19.285Z,100158.45
2019-04-05T18:45:48.202Z,100160.00
2019-04-05T18:48:17.117Z,100167.13
2019-04-05T18:50:48.413Z,100169.84
2019-04-05T18:53:14.964Z,100168.64
2019-04-05T18:55:43.865Z,100172.52
2019-04-05T18:58:12.794Z,100176.59
2019-04-05T19:00:41.712Z,100174.06
2019-04-05T19:03:10.653Z,100169.14
2019-04-05T19:05:39.626Z,100167.22
2019-04-05T19:08:08.617Z,100168.53
2019-04-05T19:10:37.667Z,100168.48
2019-04-05T19:13:06.533Z,100171.70
2019-04-05T19:15:35.435Z,100181.55
2019-04-05T19:18:04.381Z,100189.02
2019-04-05T19:20:33.365Z,100185.11
2019-04-05T19:23:02.320Z,100187.17
2019-04-05T19:25:31.233Z,100179.88
2019-04-05T19:28:00.146Z,100190.88
2019-04-05T19:50:20.744Z,100172.77
2019-04-05T19:52:49.678Z,100172.23
2019-04-05T19:55:18.674Z,100176.84
2019-04-05T19:57:47.611Z,100165.12
2019-04-05T20:00:16.566Z,100165.38
2019-04-05T20:02:45.497Z,100167.54
2019-04-05T20:05:14.414Z,100172.98
2019-04-05T20:07:43.349Z,100174.38
2019-04-05T20:10:12.284Z,100170.60
2019-04-05T20:12:41.210Z,100172.78
2019-04-05T20:15:10.129Z,100174.83
2019-04-05T20:17:39.436Z,100166.98
2019-04-05T20:20:08.463Z,100171.97
2019-04-05T20:22:37.530Z,100168.36
2019-04-05T20:25:06.489Z,100164.33
2019-04-05T20:27:35.375Z,100165.29
2019-04-05T20:30:05.329Z,100171.27
2019-04-05T20:32:34.232Z,100176.23
2019-04-05T20:35:03.226Z,100173.87
2019-04-05T20:37:32.129Z,100172.16
2019-04-05T20:40:01.063Z,100175.69
2019-04-05T20:42:30.057Z,100184.36
2019-04-05T20:44:58.952Z,100180.64
2019-04-05T20:47:27.873Z,100178.74
2019-04-05T20:49:56.775Z,100186.34
2019-04-05T20:52:25.728Z,100186.28
2019-04-05T20:54:54.648Z,100184.88
2019-04-05T20:57:23.625Z,100176.19
2019-04-05T20:59:52.484Z,100178.30
2019-04-05T21:02:21.377Z,100173.72
2019-04-05T21:04:50.283Z,100170.61
2019-04-05T21:07:19.197Z,100168.30
2019-04-05T21:09:48.310Z,100173.48
2019-04-05T21:12:17.131Z,100168.51
2019-04-05T21:14:46.072Z,100166.30
2019-04-05T21:17:14.973Z,100165.49
2019-04-05T21:19:43.911Z,100163.28
2019-04-05T21:22:12.904Z,100164.98
2019-04-05T21:24:41.836Z,100160.38
2019-04-05T21:27:12.688Z,100162.23
2019-04-05T21:29:39.748Z,100160.82
2019-04-05T21:32:08.740Z,100159.27
2019-04-05T21:34:37.702Z,100163.12
2019-04-05T21:37:06.693Z,100165.17
2019-04-05T21:39:35.735Z,100164.97
2019-04-05T21:42:04.788Z,100164.62
2019-04-05T21:44:33.718Z,100165.38
2019-04-05T21:47:02.682Z,100165.35
2019-04-05T21:49:31.645Z,100168.64
2019-04-05T21:52:00.647Z,100165.80
2019-04-05T21:54:29.640Z,100160.78
2019-04-05T21:56:58.626Z,100164.17
2019-04-05T21:59:27.587Z,100161.96
2019-04-05T22:01:56.592Z,100157.05
2019-04-05T22:04:25.622Z,100166.67
2019-04-05T22:06:54.564Z,100167.97
2019-04-05T22:09:23.521Z,100171.70
2019-04-05T22:11:52.489Z,100162.55
2019-04-05T22:14:21.499Z,100159.54
2019-04-05T22:16:50.455Z,100160.55
2019-04-05T22:19:19.926Z,100155.42
2019-04-05T22:21:49.610Z,100152.67
2019-04-05T22:24:18.542Z,100151.31
2019-04-05T22:26:47.614Z,100161.80
2019-04-05T22:29:16.621Z,100169.63
2019-04-05T22:31:45.620Z,100167.05
2019-04-05T22:34:15.738Z,100169.55
2019-04-05T22:36:44.695Z,100168.15
2019-04-05T22:39:13.726Z,100165.19
2019-04-05T22:41:42.715Z,100166.30
2019-04-05T22:44:11.689Z,100168.41
2019-04-05T22:46:40.745Z,100166.50
2019-04-05T22:49:09.780Z,100160.84
2019-04-05T22:51:38.813Z,100151.40
2019-04-05T22:54:07.826Z,100153.30
2019-04-05T22:56:36.790Z,100155.04
2019-04-05T22:59:05.814Z,100148.70
2019-04-05T23:01:34.809Z,100147.39
2019-04-05T23:04:03.813Z,100149.63
2019-04-05T23:06:32.806Z,100152.37
2019-04-05T23:09:01.819Z,100150.38
2019-04-05T23:11:30.774Z,100144.63
2019-04-05T23:13:59.731Z,100137.29
2019-04-05T23:16:28.752Z,100139.19
2019-04-05T23:18:57.722Z,100131.57
2019-04-05T23:21:26.736Z,100138.41
2019-04-05T23:23:55.742Z,100134.34
2019-04-05T23:26:24.716Z,100137.20
2019-04-05T23:28:53.779Z,100134.97
2019-04-05T23:31:22.773Z,100127.63
2019-04-05T23:33:51.755Z,100125.92
2019-04-05T23:36:20.846Z,100122.00
2019-04-05T23:38:49.740Z,100115.01
2019-04-05T23:41:18.751Z,100116.20
2019-04-05T23:43:47.727Z,100107.88
2019-04-05T23:46:16.714Z,100108.02
2019-04-05T23:48:45.692Z,100107.83
2019-04-05T23:51:14.695Z,100108.52
2019-04-05T23:53:43.672Z,100109.53
2019-04-05T23:56:12.800Z,100110.03
2019-04-05T23:58:41.812Z,100097.19
